Hundvaag 1 weather for Jul 2007
Month no. 241
Obs.
Da.
Temp. Dew Point Precip. Wind
Speed
Wind gusts Cloud cover Press. Humidity Wind dir. Sunny OPT
01.07.2007 12,1   0,0 6,4   10 1009,0 84,0 247,5 1 87,5 %
02.07.2007 15,6   1,8 25,7   1 1005,3 69,0 180,0 1 55,0 %
03.07.2007 14,6   5,5 9,7   2 999,9 83,0 247,5   65,0 %
04.07.2007 13,8   14,5 4,8   0 999,2 84,0 337,5   55,0 %
05.07.2007 13,7   3,2 0,0   0 1004,6 93,0   1 65,0 %
06.07.2007 14,4   23,0 0,0   0 999,9 87,0 67,5   50,0 %
07.07.2007 14,4   14,5 0,0   0 1000,9 88,0     57,5 %
08.07.2007 13,5   0,9 0,0   0 1005,3 89,0 270,0   67,5 %
09.07.2007 12,6   1,0 4,8   0 1009,4 83,0 292,5   65,0 %
10.07.2007 11,3   0,8 8,0   0 1006,3 85,0 225,0   60,0 %
11.07.2007 13,2   0,4 0,0   0 1002,3 85,0     67,5 %
12.07.2007 11,2   3,1 14,5   0 1003,9 87,0 0,0   55,0 %
13.07.2007 12,1   6,5 4,8   0 1009,4 78,0 292,5 1 57,5 %
14.07.2007 13,8   0,0 3,2   0 1007,7 80,0 292,5   67,5 %
15.07.2007 12,9   9,0 27,4   0 1009,7 85,0 315,0   42,5 %
16.07.2007 12,8   0,3 4,8   0 1015,5 86,0 112,5 1 65,0 %
17.07.2007 15,3   20,2 6,4   0 1006,0 88,0 22,5   52,5 %
18.07.2007 12,6   45,1 19,3   0 1006,7 90,0 225,0   30,0 %
19.07.2007 11,8   16,5 14,5   1 1015,8 85,0 315,0 1 47,5 %
20.07.2007 11,6   6,0 8,0   5 1020,2 79,0 337,5 1 67,5 %
21.07.2007 12,9   0,0 6,4   8 1017,2 89,0 0,0 1 85,0 %
22.07.2007 16,1   0,0 9,7   9 1012,4 66,0 112,5 1 87,5 %
23.07.2007 13,8   22,5 3,2   2 1006,0 87,0 0,0   55,0 %
24.07.2007 13,4   0,0 0,0   3 1001,6 87,0   1 75,0 %
25.07.2007 14,2   0,0 0,0   5 1004,6 85,0 45,0 1 80,0 %
26.07.2007 14,8   1,5 0,0   7 1001,9 85,0 225,0 1 85,0 %
27.07.2007 14,8   3,5 11,0   1 1002,0 85,0 225,0   60,0 %
28.07.2007 12,4   8,8 38,0   3 994,2 87,0 292,5 1 42,5 %
29.07.2007 12,4   5,7 38,0   3 994,2 87,0 292,5 1 45,0 %
30.07.2007 11,5   14,5 6,0   1 1001,4 88,0 22,5   55,0 %
31.07.2007 11,0   15,2 10,0   0 1010,8 81,0 45,0 1 47,5 %
Avrg/Sum 13,2   244,0 9,2   2,0 1005,9 84,4 186,7 15 61,2 %